Time;durP1;ratioP1;P1;durP2;ratioP2;P2;SDS_P1;SDS_P2;PMS_P1;PMS_P2;Temp;Humidity;BMP_temperature;BMP_pressure;BME280_temperature;BME280_humidity;BME280_pressure;Samples;Min_cycle;Max_cycle;Signal;HPM_P1;HPM_P2
2021/11/28 00:01:06;;;;;;;72.20;40.78;;;282.40;1996.80;;;;;;5094694;28;20107;-60
2021/11/28 00:03:33;;;;;;;72.70;39.63;;;282.40;1996.80;;;;;;5095264;28;20020;-60
2021/11/28 00:06:02;;;;;;;65.18;38.65;;;282.40;2022.40;;;;;;5095026;28;20442;-60
2021/11/28 00:11:27;;;;;;;62.88;38.05;;;282.40;2022.40;;;;;;5095243;28;20492;-59
2021/11/28 00:14:15;;;;;;;61.28;36.17;;;282.40;1996.80;;;;;;5095036;28;20032;-60
2021/11/28 00:16:39;;;;;;;60.70;36.10;;;282.40;1996.80;;;;;;5094611;28;20038;-60
2021/11/28 00:19:06;;;;;;;64.90;36.85;;;282.50;2022.40;;;;;;5094980;28;20051;-59
2021/11/28 00:21:33;;;;;;;63.22;37.97;;;282.50;1996.80;;;;;;5094893;28;20024;-59
2021/11/28 00:24:00;;;;;;;69.18;40.67;;;282.50;2022.40;;;;;;5093895;28;20095;-59
2021/11/28 00:26:27;;;;;;;72.00;41.85;;;282.50;1996.80;;;;;;5091904;28;20111;-58
2021/11/28 00:28:53;;;;;;;65.40;39.55;;;282.50;1996.80;;;;;;5094227;28;20012;-58
2021/11/28 00:31:18;;;;;;;63.45;37.30;;;282.50;1996.80;;;;;;5094095;28;20431;-58
2021/11/28 00:33:44;;;;;;;58.65;36.78;;;282.50;1971.20;;;;;;5094056;28;20031;-58
2021/11/28 00:36:10;;;;;;;60.47;37.97;;;282.50;1996.80;;;;;;5093645;28;20072;-58
2021/11/28 00:38:36;;;;;;;67.15;39.58;;;282.50;1996.80;;;;;;5093977;28;20108;-58
2021/11/28 00:41:03;;;;;;;61.40;38.10;;;282.50;1996.80;;;;;;5092686;28;20061;-58
2021/11/28 00:43:28;;;;;;;55.25;36.85;;;282.50;1996.80;;;;;;5090918;28;20533;-59
2021/11/28 00:45:54;;;;;;;57.10;33.88;;;282.50;1996.80;;;;;;5093637;28;20040;-59
2021/11/28 00:48:23;;;;;;;58.97;32.72;;;282.50;2022.40;;;;;;5093900;28;20476;-59
2021/11/28 00:50:52;;;;;;;49.20;30.25;;;282.40;1996.80;;;;;;5091347;28;20031;-59
2021/11/28 00:53:19;;;;;;;47.22;29.40;;;282.40;2022.40;;;;;;5093764;28;20450;-58
2021/11/28 00:55:46;;;;;;;42.85;26.95;;;282.40;2022.40;;;;;;5093901;28;20055;-58
2021/11/28 00:58:12;;;;;;;40.38;26.77;;;282.40;1996.80;;;;;;5092753;28;20031;-59
2021/11/28 01:00:38;;;;;;;41.85;26.00;;;282.40;2022.40;;;;;;5092343;28;20481;-58
2021/11/28 01:03:06;;;;;;;42.70;27.30;;;282.50;1996.80;;;;;;5093529;28;20456;-59
2021/11/28 01:05:32;;;;;;;38.85;25.70;;;282.40;2022.40;;;;;;5094413;28;20032;-58
2021/11/28 01:07:57;;;;;;;40.22;26.33;;;282.40;1996.80;;;;;;5092838;28;20381;-59
2021/11/28 01:10:23;;;;;;;39.20;24.95;;;282.40;1996.80;;;;;;5094111;28;20032;-57
2021/11/28 01:12:49;;;;;;;39.42;24.83;;;282.40;2022.40;;;;;;5094029;28;20070;-59
2021/11/28 01:15:16;;;;;;;37.65;25.48;;;282.40;1996.80;;;;;;5094362;28;20034;-59
2021/11/28 01:17:42;;;;;;;42.28;25.77;;;282.50;2022.40;;;;;;5093375;28;20024;-59
2021/11/28 01:20:09;;;;;;;42.00;25.80;;;282.50;1996.80;;;;;;5093427;28;20024;-58
2021/11/28 01:22:35;;;;;;;42.97;26.92;;;282.50;1996.80;;;;;;5093457;28;20016;-59
2021/11/28 01:25:01;;;;;;;46.42;29.20;;;282.40;2022.40;;;;;;5093398;28;20020;-58
2021/11/28 01:27:28;;;;;;;45.92;29.45;;;282.30;1996.80;;;;;;5093311;28;20104;-58
2021/11/28 01:29:53;;;;;;;45.70;29.10;;;282.30;2022.40;;;;;;5090737;28;20020;-58
2021/11/28 01:32:19;;;;;;;50.08;31.45;;;282.40;1996.80;;;;;;5093094;28;20028;-58
2021/11/28 01:34:46;;;;;;;57.22;34.63;;;282.40;1996.80;;;;;;5093872;28;20534;-58
2021/11/28 01:37:11;;;;;;;57.22;35.00;;;282.30;2022.40;;;;;;5093929;28;20389;-58
2021/11/28 01:39:38;;;;;;;54.92;34.17;;;282.30;1996.80;;;;;;5093830;28;20032;-58
2021/11/28 01:42:04;;;;;;;59.05;35.53;;;282.30;1996.80;;;;;;5092628;28;20024;-58
2021/11/28 01:44:30;;;;;;;58.83;35.75;;;282.30;1996.80;;;;;;5093087;28;20051;-59
2021/11/28 01:46:55;;;;;;;55.70;34.25;;;282.30;1996.80;;;;;;5073496;28;20056;-58
2021/11/28 01:49:22;;;;;;;54.17;35.28;;;282.30;1996.80;;;;;;5093410;28;20082;-59
2021/11/28 01:51:48;;;;;;;59.53;35.65;;;282.30;1996.80;;;;;;5093301;28;20097;-58
2021/11/28 01:54:14;;;;;;;56.70;35.25;;;282.30;2022.40;;;;;;5093103;28;20040;-58
2021/11/28 01:56:42;;;;;;;52.30;32.10;;;282.20;1996.80;;;;;;5092379;28;20388;-59
2021/11/28 01:59:09;;;;;;;48.72;31.67;;;282.20;2022.40;;;;;;5093647;28;20024;-59
2021/11/28 02:01:35;;;;;;;46.15;30.20;;;282.10;2022.40;;;;;;5093416;28;20028;-58
2021/11/28 02:04:03;;;;;;;40.25;26.23;;;282.10;1996.80;;;;;;5073422;28;20466;-58
2021/11/28 02:06:29;;;;;;;37.63;25.08;;;282.10;2022.40;;;;;;5088819;28;20588;-58
2021/11/28 02:08:55;;;;;;;38.10;26.15;;;282.10;1996.80;;;;;;5093154;28;20069;-58
2021/11/28 02:11:21;;;;;;;35.92;24.00;;;282.10;2022.40;;;;;;5096915;28;20066;-58
2021/11/28 02:13:47;;;;;;;31.65;22.90;;;282.10;1996.80;;;;;;5096956;28;20164;-59
2021/11/28 02:16:14;;;;;;;32.88;22.02;;;282.00;2022.40;;;;;;5096838;28;20020;-59
2021/11/28 02:18:40;;;;;;;32.33;23.13;;;282.00;2022.40;;;;;;5096620;28;20020;-58
2021/11/28 02:21:08;;;;;;;34.40;23.23;;;282.00;1996.80;;;;;;5097054;28;20027;-59
2021/11/28 02:23:35;;;;;;;30.80;21.05;;;282.00;2022.40;;;;;;5096775;28;20052;-58
2021/11/28 02:26:08;;;;;;;31.70;22.63;;;282.00;1996.80;;;;;;5095712;28;20032;-58
2021/11/28 02:28:35;;;;;;;32.17;21.70;;;282.00;2022.40;;;;;;5096011;28;20020;-58
2021/11/28 02:31:02;;;;;;;31.33;22.60;;;282.00;2022.40;;;;;;5096181;28;20016;-58
2021/11/28 02:33:28;;;;;;;31.25;21.95;;;281.90;2022.40;;;;;;5096587;28;20024;-59
2021/11/28 02:35:54;;;;;;;30.40;21.63;;;281.90;2048.00;;;;;;5096603;28;20103;-59
2021/11/28 02:38:20;;;;;;;30.27;20.67;;;281.90;2022.40;;;;;;5096005;28;20096;-58
2021/11/28 02:40:47;;;;;;;33.63;22.77;;;281.90;2022.40;;;;;;5096460;28;20476;-58
2021/11/28 02:43:13;;;;;;;35.45;23.13;;;282.00;2022.40;;;;;;5096223;28;20106;-58
2021/11/28 02:45:39;;;;;;;35.33;24.00;;;282.00;2022.40;;;;;;5096907;28;20115;-58
2021/11/28 02:48:08;;;;;;;38.38;24.35;;;281.90;2048.00;;;;;;5096363;28;20016;-58
2021/11/28 02:50:35;;;;;;;32.15;22.30;;;282.00;2022.40;;;;;;5096683;28;20043;-58
2021/11/28 02:53:04;;;;;;;34.38;23.15;;;281.90;2048.00;;;;;;5096879;28;20021;-58
2021/11/28 02:55:35;;;;;;;31.50;21.90;;;282.00;2022.40;;;;;;5096241;28;20055;-57
2021/11/28 02:58:01;;;;;;;37.53;27.00;;;282.00;2022.40;;;;;;5096753;28;20016;-58
2021/11/28 03:00:30;;;;;;;38.25;26.85;;;282.00;2022.40;;;;;;5095313;28;20024;-58
2021/11/28 03:02:56;;;;;;;33.60;23.65;;;282.00;2022.40;;;;;;5095953;28;20024;-58
2021/11/28 03:05:23;;;;;;;29.90;22.08;;;282.00;2048.00;;;;;;5095138;28;20043;-58
2021/11/28 03:07:48;;;;;;;32.42;22.20;;;282.00;2022.40;;;;;;5095856;28;20047;-58
2021/11/28 03:10:40;;;;;;;31.88;21.92;;;282.00;2022.40;;;;;;5096355;28;20024;-59
2021/11/28 03:13:09;;;;;;;31.63;21.92;;;282.00;2048.00;;;;;;5096390;28;20024;-59
2021/11/28 03:15:37;;;;;;;33.13;22.63;;;282.00;2022.40;;;;;;5096449;28;20119;-59
2021/11/28 03:18:13;;;;;;;32.83;20.83;;;282.00;2022.40;;;;;;5096292;28;20020;-59
2021/11/28 03:20:39;;;;;;;33.00;20.90;;;282.10;2022.40;;;;;;5095690;28;20031;-59
2021/11/28 03:23:05;;;;;;;30.60;21.05;;;282.00;2048.00;;;;;;5095703;28;20024;-59
2021/11/28 03:25:32;;;;;;;33.25;19.75;;;282.00;2048.00;;;;;;5096069;28;20384;-59
2021/11/28 03:27:58;;;;;;;31.70;19.73;;;282.00;2048.00;;;;;;5096049;28;20571;-59
2021/11/28 03:30:24;;;;;;;26.23;18.52;;;282.10;2048.00;;;;;;5096195;28;20058;-59
2021/11/28 03:32:51;;;;;;;24.58;17.88;;;282.00;2022.40;;;;;;5095965;28;20035;-59
2021/11/28 03:35:18;;;;;;;24.83;18.10;;;282.10;2048.00;;;;;;5095888;28;20412;-59
2021/11/28 03:37:44;;;;;;;24.48;18.35;;;282.10;2048.00;;;;;;5095851;28;20062;-59
2021/11/28 03:40:11;;;;;;;22.48;16.80;;;282.10;2048.00;;;;;;5095907;28;20042;-59
2021/11/28 03:42:37;;;;;;;23.35;16.00;;;282.10;2048.00;;;;;;5095775;28;20016;-59
2021/11/28 03:45:07;;;;;;;26.02;17.10;;;282.10;2022.40;;;;;;5095498;28;20024;-59
2021/11/28 03:47:33;;;;;;;27.63;16.95;;;282.10;2048.00;;;;;;5095601;28;20028;-59
2021/11/28 03:49:59;;;;;;;23.17;16.48;;;282.10;2022.40;;;;;;5095318;28;20027;-59
2021/11/28 03:52:24;;;;;;;23.27;16.33;;;282.10;2048.00;;;;;;5095635;28;20024;-59
2021/11/28 03:54:51;;;;;;;24.80;16.17;;;282.10;2022.40;;;;;;5095332;28;20234;-59
2021/11/28 03:57:16;;;;;;;26.85;17.33;;;282.10;2022.40;;;;;;5095449;28;20016;-59
2021/11/28 03:59:42;;;;;;;23.33;16.27;;;282.10;2048.00;;;;;;5094972;28;20032;-59
2021/11/28 04:02:08;;;;;;;21.50;16.50;;;282.10;2022.40;;;;;;5095469;28;20030;-59
2021/11/28 04:04:34;;;;;;;24.85;16.15;;;282.10;2048.00;;;;;;5095733;28;20446;-59
2021/11/28 04:07:00;;;;;;;24.70;15.60;;;282.10;2048.00;;;;;;5095248;28;20036;-59
2021/11/28 04:09:25;;;;;;;23.20;15.73;;;282.10;2022.40;;;;;;5095256;28;20123;-59
2021/11/28 04:11:51;;;;;;;26.15;16.17;;;282.20;2048.00;;;;;;5095194;28;20024;-59
2021/11/28 04:14:18;;;;;;;21.88;15.60;;;282.20;2048.00;;;;;;5095103;28;20025;-59
2021/11/28 04:16:44;;;;;;;20.85;14.95;;;282.10;2048.00;;;;;;5094873;28;20035;-59
2021/11/28 04:19:09;;;;;;;23.35;15.65;;;282.20;2048.00;;;;;;5094920;28;20021;-59
2021/11/28 04:21:36;;;;;;;24.30;16.08;;;282.20;2022.40;;;;;;5095077;28;20024;-59
2021/11/28 04:24:02;;;;;;;24.10;16.08;;;282.30;2048.00;;;;;;5095139;28;20289;-59
2021/11/28 04:26:28;;;;;;;23.35;15.57;;;282.30;2022.40;;;;;;5094544;28;20170;-59
2021/11/28 04:28:54;;;;;;;22.20;15.30;;;282.30;2022.40;;;;;;5095101;28;20416;-59
2021/11/28 04:31:19;;;;;;;24.35;17.05;;;282.30;2022.40;;;;;;5094888;28;20527;-59
2021/11/28 04:33:45;;;;;;;33.17;22.33;;;282.20;2022.40;;;;;;5094747;28;20082;-59
2021/11/28 04:36:11;;;;;;;27.73;20.83;;;282.20;2048.00;;;;;;5094637;28;20020;-59
2021/11/28 04:38:36;;;;;;;25.25;19.08;;;282.30;2022.40;;;;;;5094648;28;20084;-59
2021/11/28 04:41:02;;;;;;;24.77;18.40;;;282.30;2022.40;;;;;;5094491;28;20099;-59
2021/11/28 04:43:28;;;;;;;27.17;18.17;;;282.30;2022.40;;;;;;5094564;28;20024;-60
2021/11/28 04:45:54;;;;;;;25.13;16.48;;;282.30;1996.80;;;;;;5075856;28;20055;-59
2021/11/28 04:48:20;;;;;;;24.08;16.80;;;282.30;2022.40;;;;;;5094553;28;20103;-59
2021/11/28 04:50:45;;;;;;;26.77;17.80;;;282.30;1996.80;;;;;;5094359;28;20043;-59
2021/11/28 04:53:11;;;;;;;25.77;18.05;;;282.30;1996.80;;;;;;5094513;28;20077;-59
2021/11/28 04:55:37;;;;;;;31.00;19.00;;;282.30;1996.80;;;;;;5094025;28;20039;-59
2021/11/28 04:58:03;;;;;;;26.60;17.73;;;282.30;1996.80;;;;;;5094469;28;20473;-59
2021/11/28 05:00:30;;;;;;;25.70;17.40;;;282.30;2022.40;;;;;;5094151;28;20089;-59
2021/11/28 05:02:57;;;;;;;22.35;16.70;;;282.30;1996.80;;;;;;5094236;28;20039;-59
2021/11/28 05:05:26;;;;;;;24.42;14.98;;;282.20;2022.40;;;;;;5094071;28;20545;-59
2021/11/28 05:07:53;;;;;;;21.92;15.15;;;282.20;1996.80;;;;;;5094466;28;20020;-59
2021/11/28 05:10:19;;;;;;;22.92;15.48;;;282.20;1996.80;;;;;;5094046;28;20085;-59
2021/11/28 05:12:45;;;;;;;21.10;13.93;;;282.10;2022.40;;;;;;5094237;28;20024;-59
2021/11/28 05:15:11;;;;;;;19.95;14.55;;;282.10;1996.80;;;;;;5094648;28;20073;-59
2021/11/28 05:17:37;;;;;;;19.73;13.93;;;282.10;2022.40;;;;;;5094269;28;20023;-59
2021/11/28 05:20:04;;;;;;;27.40;16.25;;;282.10;1996.80;;;;;;5094206;28;20531;-59
2021/11/28 05:22:30;;;;;;;23.85;15.73;;;282.10;1996.80;;;;;;5094128;28;20085;-59
2021/11/28 05:24:56;;;;;;;25.42;16.45;;;282.00;1996.80;;;;;;5093896;28;20431;-59
2021/11/28 05:27:22;;;;;;;25.45;17.00;;;282.10;1996.80;;;;;;5093886;28;20032;-59
2021/11/28 05:29:48;;;;;;;24.63;17.60;;;282.00;1996.80;;;;;;5093901;28;20024;-59
2021/11/28 05:32:14;;;;;;;28.27;18.25;;;282.00;1996.80;;;;;;5093826;28;20059;-59
2021/11/28 05:34:41;;;;;;;25.15;18.25;;;282.00;1996.80;;;;;;5094010;28;20089;-59
2021/11/28 05:37:06;;;;;;;29.50;19.52;;;282.00;1996.80;;;;;;5093830;28;20042;-59
2021/11/28 05:39:32;;;;;;;32.88;21.63;;;282.00;1971.20;;;;;;5093913;28;20355;-59
2021/11/28 05:41:58;;;;;;;35.17;22.20;;;281.90;1971.20;;;;;;5093944;28;20111;-59
2021/11/28 05:44:24;;;;;;;38.25;23.02;;;281.80;1996.80;;;;;;5094364;28;20442;-59
2021/11/28 05:46:50;;;;;;;36.08;23.10;;;281.80;1996.80;;;;;;5098212;28;20374;-59
2021/11/28 05:49:16;;;;;;;58.90;34.78;;;281.70;1996.80;;;;;;5097951;28;20024;-59
2021/11/28 05:51:42;;;;;;;67.22;41.00;;;281.70;1996.80;;;;;;5098044;28;20103;-59
2021/11/28 05:54:08;;;;;;;73.07;44.08;;;281.80;1996.80;;;;;;5079218;28;20449;-59
2021/11/28 05:56:34;;;;;;;78.05;47.10;;;281.70;2022.40;;;;;;5094489;28;20032;-59
2021/11/28 05:59:00;;;;;;;60.80;38.40;;;281.70;2022.40;;;;;;5096988;28;20070;-59
2021/11/28 06:01:26;;;;;;;53.72;30.90;;;281.70;1996.80;;;;;;5096736;28;20103;-59
2021/11/28 06:03:52;;;;;;;44.92;28.00;;;281.70;1996.80;;;;;;5096565;28;20028;-59
2021/11/28 06:06:17;;;;;;;38.75;25.45;;;281.70;2022.40;;;;;;5096522;28;20454;-59
2021/11/28 06:08:43;;;;;;;31.88;22.83;;;281.60;1996.80;;;;;;5096730;28;20416;-58
2021/11/28 06:11:09;;;;;;;26.40;17.98;;;281.60;2022.40;;;;;;5096254;28;20112;-59
2021/11/28 06:13:35;;;;;;;34.90;17.38;;;281.80;2099.20;;;;;;5096275;28;20024;-59
2021/11/28 06:16:00;;;;;;;26.05;16.40;;;281.90;2073.60;;;;;;5095515;28;20055;-59
2021/11/28 06:18:26;;;;;;;28.08;15.82;;;282.00;2048.00;;;;;;5094661;28;20024;-59
2021/11/28 06:20:52;;;;;;;33.70;20.50;;;282.00;1996.80;;;;;;5094692;28;20044;-58
2021/11/28 06:23:18;;;;;;;30.90;21.20;;;281.90;2022.40;;;;;;5095778;28;20048;-59
2021/11/28 06:25:43;;;;;;;40.05;24.35;;;282.00;1996.80;;;;;;5095665;28;20469;-58
2021/11/28 06:28:09;;;;;;;38.80;24.50;;;282.00;1996.80;;;;;;5096352;28;20031;-59
2021/11/28 06:30:35;;;;;;;37.35;25.30;;;282.00;1996.80;;;;;;5096527;28;20031;-59
2021/11/28 06:33:02;;;;;;;29.45;21.02;;;282.00;1996.80;;;;;;5095879;28;20466;-59
2021/11/28 06:35:27;;;;;;;30.75;21.63;;;282.00;1996.80;;;;;;5095974;28;20075;-59
2021/11/28 06:37:53;;;;;;;32.90;22.00;;;282.00;1971.20;;;;;;5096221;28;20042;-59
2021/11/28 06:40:19;;;;;;;32.15;21.92;;;282.00;1996.80;;;;;;5096340;28;20031;-59
2021/11/28 06:42:45;;;;;;;42.95;26.17;;;282.00;1996.80;;;;;;5095869;28;20051;-59
2021/11/28 06:45:11;;;;;;;38.10;26.40;;;282.10;1971.20;;;;;;5095840;28;20107;-59
2021/11/28 06:47:37;;;;;;;34.60;23.90;;;282.10;1996.80;;;;;;5095644;28;20032;-59
2021/11/28 06:50:05;;;;;;;33.90;22.75;;;282.10;1971.20;;;;;;5096077;28;20016;-59
2021/11/28 06:52:31;;;;;;;35.67;22.05;;;282.10;1996.80;;;;;;5095935;28;20020;-59
2021/11/28 06:54:56;;;;;;;28.23;18.60;;;282.10;1971.20;;;;;;5095904;28;20184;-58
2021/11/28 06:57:22;;;;;;;28.98;17.70;;;282.10;1996.80;;;;;;5095364;28;20500;-59
2021/11/28 06:59:48;;;;;;;27.02;17.10;;;282.10;1996.80;;;;;;5095812;28;20024;-59
2021/11/28 07:02:14;;;;;;;29.15;18.15;;;282.10;1971.20;;;;;;5095630;28;20043;-58
2021/11/28 07:04:42;;;;;;;29.85;17.85;;;282.10;1996.80;;;;;;5095147;28;20035;-59
2021/11/28 07:07:08;;;;;;;28.85;19.95;;;282.20;1996.80;;;;;;5094969;28;20469;-58
2021/11/28 07:09:34;;;;;;;35.42;23.15;;;282.10;1971.20;;;;;;5095553;28;20043;-59
2021/11/28 07:12:00;;;;;;;37.60;22.77;;;282.20;1971.20;;;;;;5095337;28;20028;-58
2021/11/28 07:14:26;;;;;;;32.22;21.83;;;282.20;1971.20;;;;;;5095633;28;20020;-59
2021/11/28 07:16:51;;;;;;;36.08;23.35;;;282.20;1996.80;;;;;;5095432;28;20028;-59
2021/11/28 07:19:17;;;;;;;46.72;25.20;;;282.20;1971.20;;;;;;5095374;28;20493;-58
2021/11/28 07:21:43;;;;;;;40.97;25.73;;;282.20;1971.20;;;;;;5095436;28;20028;-59
2021/11/28 07:24:09;;;;;;;43.33;25.52;;;282.30;1996.80;;;;;;5095069;28;20532;-58
2021/11/28 07:26:35;;;;;;;43.08;26.40;;;282.30;1971.20;;;;;;5094791;28;20063;-58
2021/11/28 07:29:01;;;;;;;40.15;25.98;;;282.30;1996.80;;;;;;5094867;28;20433;-58
2021/11/28 07:31:27;;;;;;;38.80;23.27;;;282.30;1996.80;;;;;;5095393;28;20538;-59
2021/11/28 07:33:52;;;;;;;38.22;24.08;;;282.30;1996.80;;;;;;5094371;28;20043;-59
2021/11/28 07:36:19;;;;;;;34.28;21.67;;;282.40;1996.80;;;;;;5094073;28;20386;-59
2021/11/28 07:38:45;;;;;;;27.50;19.80;;;282.40;1996.80;;;;;;5094565;28;20028;-59
2021/11/28 07:41:11;;;;;;;38.67;20.38;;;282.40;1996.80;;;;;;5074848;28;20028;-59
2021/11/28 07:43:37;;;;;;;35.28;20.05;;;282.50;2022.40;;;;;;5094802;28;20053;-59
2021/11/28 07:46:04;;;;;;;39.90;19.80;;;282.50;2022.40;;;;;;5095624;28;20036;-59
2021/11/28 07:48:30;;;;;;;30.35;19.27;;;307.20;2073.60;;;;;;5095836;28;20374;-59
2021/11/28 07:50:58;;;;;;;33.22;20.35;;;307.20;2048.00;;;;;;5095642;28;20028;-59
2021/11/28 07:53:24;;;;;;;31.65;20.75;;;307.30;2048.00;;;;;;5095377;28;20221;-59
2021/11/28 07:55:50;;;;;;;31.40;21.30;;;307.30;2048.00;;;;;;5095170;28;20127;-60
2021/11/28 07:58:16;;;;;;;71.38;26.67;;;307.30;2048.00;;;;;;5095021;28;20062;-60
2021/11/28 08:00:42;;;;;;;54.15;24.02;;;307.80;2252.80;;;;;;5095397;28;20024;-60
2021/11/28 08:03:08;;;;;;;39.90;20.95;;;308.10;2201.60;;;;;;5095132;28;20106;-59
2021/11/28 08:05:33;;;;;;;35.55;22.10;;;332.90;2099.20;;;;;;5095428;28;20035;-59
2021/11/28 08:07:59;;;;;;;35.20;21.08;;;332.90;2048.00;;;;;;5094600;28;20343;-59
2021/11/28 08:10:25;;;;;;;33.13;20.88;;;332.80;2048.00;;;;;;5095204;28;20028;-59
2021/11/28 08:12:51;;;;;;;40.05;22.45;;;332.80;2022.40;;;;;;5095292;28;20055;-59
2021/11/28 08:15:18;;;;;;;33.05;21.60;;;332.80;2022.40;;;;;;5095106;28;20024;-59
2021/11/28 08:17:46;;;;;;;32.13;21.20;;;332.80;2022.40;;;;;;5095145;28;20028;-59
2021/11/28 08:20:12;;;;;;;28.75;19.55;;;332.80;2022.40;;;;;;5095238;28;20466;-59
2021/11/28 08:22:38;;;;;;;27.70;19.60;;;332.80;2022.40;;;;;;5094958;28;20043;-59
2021/11/28 08:25:08;;;;;;;30.05;20.25;;;332.80;2022.40;;;;;;5094703;28;20043;-59
2021/11/28 08:27:34;;;;;;;30.23;20.20;;;332.80;2022.40;;;;;;5094845;28;20028;-59
2021/11/28 08:30:03;;;;;;;27.33;19.33;;;332.80;1996.80;;;;;;5094688;28;20024;-59
2021/11/28 08:32:29;;;;;;;33.10;21.27;;;332.90;1996.80;;;;;;5094731;28;20024;-59
2021/11/28 08:34:55;;;;;;;35.10;23.40;;;332.80;2022.40;;;;;;5094611;28;20074;-59
2021/11/28 08:37:21;;;;;;;33.75;22.60;;;332.80;1996.80;;;;;;5094421;28;20036;-59
2021/11/28 08:39:47;;;;;;;38.40;23.20;;;332.90;2022.40;;;;;;5094525;28;20020;-59
2021/11/28 08:42:13;;;;;;;37.40;22.30;;;332.90;2022.40;;;;;;5094329;28;20035;-58
2021/11/28 08:44:40;;;;;;;31.50;21.23;;;333.00;2022.40;;;;;;5094752;28;20028;-59
2021/11/28 08:47:06;;;;;;;31.80;20.95;;;333.00;2022.40;;;;;;5094537;28;20462;-59
2021/11/28 08:49:32;;;;;;;35.30;21.88;;;333.00;2048.00;;;;;;5094587;28;20028;-59
2021/11/28 08:51:59;;;;;;;34.75;23.80;;;333.10;2048.00;;;;;;5094170;28;20368;-59
2021/11/28 08:54:25;;;;;;;31.70;22.33;;;333.20;2048.00;;;;;;5094457;28;20094;-59
2021/11/28 08:56:51;;;;;;;30.48;20.83;;;333.30;2048.00;;;;;;5094538;28;20020;-59
2021/11/28 08:59:18;;;;;;;34.50;21.98;;;333.30;2022.40;;;;;;5094452;28;20028;-59
2021/11/28 09:01:44;;;;;;;31.70;21.27;;;333.30;1996.80;;;;;;5094359;28;20017;-59
2021/11/28 09:04:10;;;;;;;32.08;20.83;;;333.30;1996.80;;;;;;5094323;28;20043;-59
2021/11/28 09:06:36;;;;;;;32.20;21.98;;;333.40;1996.80;;;;;;5094317;28;20070;-59
2021/11/28 09:09:03;;;;;;;31.20;21.15;;;333.40;1996.80;;;;;;5093839;28;20551;-59
2021/11/28 09:11:29;;;;;;;32.65;22.73;;;333.40;1971.20;;;;;;5094173;28;20116;-59
2021/11/28 09:13:55;;;;;;;30.45;21.10;;;333.40;1996.80;;;;;;5094276;28;20103;-59
2021/11/28 09:16:21;;;;;;;30.42;20.88;;;333.40;1971.20;;;;;;5094361;28;20107;-59
2021/11/28 09:18:54;;;;;;;40.10;24.58;;;333.40;1971.20;;;;;;5093497;28;20553;-59
2021/11/28 09:21:20;;;;;;;47.43;27.87;;;333.50;1971.20;;;;;;5094238;28;20094;-59
2021/11/28 09:26:31;;;;;;;50.42;26.63;;;333.50;1971.20;;;;;;5094051;28;20042;-60
2021/11/28 09:29:00;;;;;;;58.85;32.97;;;333.50;1971.20;;;;;;5093828;28;20430;-60
2021/11/28 09:31:27;;;;;;;48.88;29.75;;;333.50;1971.20;;;;;;5093966;28;20031;-60
2021/11/28 09:33:53;;;;;;;44.75;27.90;;;333.60;1971.20;;;;;;5093944;28;20359;-59
2021/11/28 09:36:19;;;;;;;44.80;26.35;;;333.60;1971.20;;;;;;5094001;28;20027;-59
2021/11/28 09:38:44;;;;;;;36.63;23.88;;;333.70;1971.20;;;;;;5093699;28;20035;-59
2021/11/28 09:41:12;;;;;;;31.23;21.40;;;333.70;1971.20;;;;;;5093899;28;20028;-59
2021/11/28 09:43:47;;;;;;;31.17;21.73;;;333.70;1971.20;;;;;;5093937;28;20024;-59
2021/11/28 09:46:13;;;;;;;32.80;20.50;;;333.70;1996.80;;;;;;5093652;28;20058;-59
2021/11/28 09:48:39;;;;;;;29.85;20.02;;;358.40;1996.80;;;;;;5093945;28;20482;-59
2021/11/28 09:51:07;;;;;;;29.95;19.90;;;358.40;1971.20;;;;;;5093575;28;20350;-59
2021/11/28 09:53:37;;;;;;;24.92;17.60;;;358.40;1971.20;;;;;;5093269;28;20023;-59
2021/11/28 09:56:05;;;;;;;23.20;16.88;;;358.50;1971.20;;;;;;5093585;28;20068;-60
2021/11/28 09:58:31;;;;;;;23.63;15.68;;;358.50;1971.20;;;;;;5093608;28;20376;-60
2021/11/28 10:00:58;;;;;;;23.77;15.77;;;358.60;1971.20;;;;;;5093398;28;20024;-59
2021/11/28 10:03:24;;;;;;;26.20;17.20;;;358.60;1971.20;;;;;;5093422;28;20473;-59
2021/11/28 10:05:52;;;;;;;24.95;16.95;;;358.60;1971.20;;;;;;5093085;28;20039;-59
2021/11/28 10:08:20;;;;;;;22.17;15.35;;;358.60;1971.20;;;;;;5093670;28;20020;-60
2021/11/28 10:11:16;;;;;;;20.95;14.73;;;358.70;1971.20;;;;;;5093266;28;20568;-59
2021/11/28 10:13:42;;;;;;;20.67;13.90;;;358.80;1971.20;;;;;;5093706;28;20419;-59
2021/11/28 10:16:08;;;;;;;18.48;12.05;;;358.80;1945.60;;;;;;5092605;28;20052;-58
2021/11/28 10:18:36;;;;;;;18.00;11.88;;;358.90;1971.20;;;;;;5091958;28;20062;-58
2021/11/28 10:21:02;;;;;;;16.17;12.07;;;359.00;1971.20;;;;;;5093148;28;20111;-59
2021/11/28 10:23:28;;;;;;;15.35;11.25;;;359.00;1971.20;;;;;;5092984;28;20016;-59
2021/11/28 10:26:13;;;;;;;15.27;11.63;;;359.10;1971.20;;;;;;5092325;28;20047;-59
2021/11/28 10:29:05;;;;;;;17.00;10.80;;;359.20;1971.20;;;;;;5091213;28;20096;-59
2021/11/28 10:31:40;;;;;;;12.57;9.25;;;359.30;1945.60;;;;;;5093505;28;20103;-59
2021/11/28 10:34:24;;;;;;;12.70;8.35;;;359.30;1920.00;;;;;;5097137;28;20099;-59
2021/11/28 10:36:52;;;;;;;10.35;7.18;;;384.00;1920.00;;;;;;5096890;28;20458;-60
2021/11/28 10:39:22;;;;;;;9.30;6.97;;;384.10;1920.00;;;;;;5096814;28;20099;-60
2021/11/28 10:41:51;;;;;;;11.73;7.93;;;384.10;1894.40;;;;;;5078000;28;20453;-61
2021/11/28 10:44:19;;;;;;;12.10;7.03;;;384.20;1894.40;;;;;;5096972;28;20067;-60
2021/11/28 10:46:46;;;;;;;13.13;7.20;;;384.40;1894.40;;;;;;5096851;28;20097;-60
2021/11/28 10:49:14;;;;;;;13.63;8.57;;;384.40;1894.40;;;;;;5096640;28;20024;-59
2021/11/28 10:51:45;;;;;;;15.73;9.40;;;384.50;1894.40;;;;;;5096924;28;20024;-59
2021/11/28 10:54:28;;;;;;;10.35;6.53;;;384.60;1894.40;;;;;;5096663;28;20039;-58
2021/11/28 10:57:06;;;;;;;7.93;4.93;;;384.70;1843.20;;;;;;5096779;28;20438;-60
2021/11/28 10:59:35;;;;;;;14.68;6.57;;;384.80;1843.20;;;;;;5096559;28;20020;-60
2021/11/28 11:02:17;;;;;;;21.70;9.63;;;384.80;1843.20;;;;;;5096768;28;20459;-60
2021/11/28 11:04:43;;;;;;;10.00;5.55;;;409.60;1868.80;;;;;;5096626;28;20036;-60
2021/11/28 11:07:12;;;;;;;16.67;9.02;;;409.60;1843.20;;;;;;5096385;28;20461;-60
2021/11/28 11:09:44;;;;;;;14.40;6.95;;;409.60;1817.60;;;;;;5096456;28;20032;-60
2021/11/28 11:12:41;;;;;;;19.95;8.77;;;409.70;1817.60;;;;;;5096486;28;20024;-60
2021/11/28 11:15:07;;;;;;;13.05;6.00;;;409.70;1792.00;;;;;;5095748;28;20062;-60
2021/11/28 11:17:34;;;;;;;6.45;4.20;;;409.80;1792.00;;;;;;5096503;28;20028;-60
2021/11/28 11:20:00;;;;;;;8.10;4.28;;;409.80;1792.00;;;;;;5096243;28;20024;-59
2021/11/28 11:22:31;;;;;;;7.88;3.72;;;409.80;1792.00;;;;;;5096616;28;20024;-59
2021/11/28 11:24:58;;;;;;;12.68;4.18;;;409.80;1766.40;;;;;;5096039;28;20063;-60
2021/11/28 11:27:27;;;;;;;7.22;4.22;;;409.90;1766.40;;;;;;5096185;28;20047;-60
2021/11/28 11:29:55;;;;;;;11.60;4.35;;;409.90;1766.40;;;;;;5095877;28;20024;-60
2021/11/28 11:32:45;;;;;;;6.93;3.85;;;409.90;1766.40;;;;;;5096016;28;20038;-60
2021/11/28 11:35:19;;;;;;;12.80;4.43;;;409.90;1766.40;;;;;;5095950;28;20023;-60
2021/11/28 11:37:46;;;;;;;6.95;3.53;;;409.90;1766.40;;;;;;5096625;28;20363;-60
2021/11/28 11:40:13;;;;;;;10.25;4.07;;;409.90;1740.80;;;;;;5095986;28;20031;-60
2021/11/28 11:42:43;;;;;;;8.82;4.40;;;409.90;1766.40;;;;;;5095033;28;20020;-60
2021/11/28 11:45:15;;;;;;;10.45;4.03;;;409.90;1766.40;;;;;;5095681;28;20028;-59
2021/11/28 11:47:42;;;;;;;6.38;3.20;;;409.90;1740.80;;;;;;5095785;28;20028;-60
2021/11/28 11:50:10;;;;;;;11.27;3.88;;;409.90;1740.80;;;;;;5095682;28;20099;-60
2021/11/28 11:52:36;;;;;;;4.88;3.65;;;409.80;1740.80;;;;;;5095603;28;20024;-59
2021/11/28 11:55:13;;;;;;;10.00;4.97;;;409.90;1740.80;;;;;;5095455;28;20137;-59
2021/11/28 11:58:10;;;;;;;11.93;4.97;;;409.80;1740.80;;;;;;5095511;28;20020;-60
2021/11/28 12:00:52;;;;;;;8.23;4.63;;;409.80;1715.20;;;;;;5095804;28;20028;-59
2021/11/28 12:03:20;;;;;;;10.32;5.30;;;409.80;1715.20;;;;;;5095901;28;20013;-60
2021/11/28 12:05:50;;;;;;;13.52;6.28;;;409.80;1715.20;;;;;;5095143;28;20093;-59
2021/11/28 12:08:16;;;;;;;16.20;9.32;;;409.80;1740.80;;;;;;5095423;28;20031;-60